createdAt,value
2023-02-12T00:00:13.036Z,7.9
2023-02-12T00:05:50.963Z,7.9
2023-02-12T00:11:27.008Z,7.9
2023-02-12T00:17:04.306Z,7.8
2023-02-12T00:22:41.927Z,7.8
2023-02-12T00:28:24.757Z,7.7
2023-02-12T00:34:00.563Z,7.6
2023-02-12T00:39:35.909Z,7.6
2023-02-12T00:45:12.104Z,7.5
2023-02-12T00:50:50.643Z,7.5
2023-02-12T00:56:26.939Z,7.5
2023-02-12T01:02:02.790Z,7.4
2023-02-12T01:08:17.344Z,7.4
2023-02-12T01:13:52.236Z,7.4
2023-02-12T01:19:28.244Z,7.3
2023-02-12T01:25:04.350Z,7.3
2023-02-12T01:30:44.097Z,7.3
2023-02-12T01:36:20.264Z,7.3
2023-02-12T01:41:55.386Z,7.2
2023-02-12T01:47:33.827Z,7.1
2023-02-12T01:53:09.406Z,7
2023-02-12T01:59:15.326Z,7
2023-02-12T02:04:58.661Z,7
2023-02-12T02:10:54.719Z,7
2023-02-12T02:16:33.273Z,6.9
2023-02-12T02:23:02.559Z,6.9
2023-02-12T02:28:38.338Z,6.9
2023-02-12T02:34:37.547Z,6.9
2023-02-12T02:40:17.993Z,6.9
2023-02-12T02:47:27.820Z,6.9
2023-02-12T02:53:27.887Z,6.9
2023-02-12T02:59:48.251Z,6.9
2023-02-12T03:05:25.984Z,6.9
2023-02-12T03:11:03.167Z,7
2023-02-12T03:16:49.165Z,7
2023-02-12T03:22:28.371Z,7
2023-02-12T03:28:12.937Z,6.9
2023-02-12T03:33:48.944Z,6.9
2023-02-12T03:40:08.921Z,6.8
2023-02-12T03:45:43.823Z,6.7
2023-02-12T03:51:29.532Z,6.7
2023-02-12T03:57:23.230Z,6.7
2023-02-12T04:02:59.502Z,6.7
2023-02-12T04:08:35.810Z,6.7
2023-02-12T04:14:14.365Z,6.6
2023-02-12T04:19:55.214Z,6.6
2023-02-12T04:25:31.785Z,6.6
2023-02-12T04:31:06.717Z,6.6
2023-02-12T04:36:44.246Z,6.6
2023-02-12T04:42:33.312Z,6.5
2023-02-12T04:48:09.600Z,6.5
2023-02-12T04:53:44.643Z,6.5
2023-02-12T05:00:05.261Z,6.4
2023-02-12T05:06:00.433Z,6.4
2023-02-12T05:11:35.269Z,6.4
2023-02-12T05:17:27.952Z,6.5
2023-02-12T05:23:13.723Z,6.5
2023-02-12T05:28:53.477Z,6.4
2023-02-12T05:34:30.628Z,6.4
2023-02-12T05:40:07.457Z,6.3
2023-02-12T05:45:42.457Z,6.2
2023-02-12T05:51:44.498Z,6.1
2023-02-12T05:57:41.084Z,6.2
2023-02-12T06:03:58.717Z,6.2
2023-02-12T06:10:26.578Z,6.1
2023-02-12T06:16:26.901Z,6.2
2023-02-12T06:22:29.557Z,6.2
2023-02-12T06:28:16.606Z,6.1
2023-02-12T06:34:09.579Z,6.1
2023-02-12T06:39:48.226Z,6.1
2023-02-12T06:45:39.388Z,6.1
2023-02-12T06:51:15.905Z,6.2
2023-02-12T06:56:53.234Z,6.2
2023-02-12T07:02:31.939Z,6.1
2023-02-12T07:08:07.115Z,6.1
2023-02-12T07:13:47.424Z,6.1
2023-02-12T07:19:33.642Z,6.1
2023-02-12T07:25:08.982Z,6.1
2023-02-12T07:30:52.895Z,6.1
2023-02-12T07:36:29.020Z,6.2
2023-02-12T07:42:05.705Z,6.2
2023-02-12T07:47:44.888Z,6.2
2023-02-12T07:53:22.254Z,6.3
2023-02-12T07:59:21.003Z,6.4
2023-02-12T08:04:59.984Z,5.9
2023-02-12T08:10:39.238Z,6
2023-02-12T08:16:15.998Z,6.4
2023-02-12T08:21:52.123Z,6.6
2023-02-12T08:27:27.700Z,6.5
2023-02-12T08:33:06.312Z,6.6
2023-02-12T08:38:41.663Z,6.5
2023-02-12T08:44:16.925Z,6.6
2023-02-12T08:49:52.692Z,6.8
2023-02-12T08:55:28.082Z,7.3
2023-02-12T09:01:04.120Z,7.5
2023-02-12T09:06:40.183Z,7.6
2023-02-12T09:12:16.136Z,7.8
2023-02-12T09:17:51.585Z,8.3
2023-02-12T09:23:30.094Z,8.7
2023-02-12T09:29:05.421Z,8.9
2023-02-12T09:34:41.339Z,9.2
2023-02-12T09:40:17.085Z,9.5
2023-02-12T09:45:52.008Z,9.7
2023-02-12T09:51:29.613Z,9.9
2023-02-12T09:57:12.615Z,10.2
2023-02-12T10:02:48.417Z,10.5
2023-02-12T10:08:24.784Z,10.9
2023-02-12T10:14:01.243Z,11
2023-02-12T10:19:36.521Z,11.2
2023-02-12T10:25:11.876Z,11.4
2023-02-12T10:30:47.503Z,11.6
2023-02-12T10:36:42.826Z,12
2023-02-12T10:42:18.128Z,12.2
2023-02-12T10:47:54.057Z,12.4
2023-02-12T10:53:35.109Z,12.5
2023-02-12T10:59:10.603Z,12.7
2023-02-12T11:04:45.769Z,12.8
2023-02-12T11:10:21.634Z,13
2023-02-12T11:15:58.976Z,13.2
2023-02-12T11:21:37.548Z,13.4
2023-02-12T11:27:20.791Z,13.4
2023-02-12T11:33:16.871Z,13.4
2023-02-12T11:38:53.055Z,13.7
2023-02-12T11:44:39.697Z,14
2023-02-12T11:50:17.384Z,14.1
2023-02-12T11:56:32.453Z,14.2
2023-02-12T12:02:07.436Z,14.4
2023-02-12T12:07:43.675Z,14.4
2023-02-12T12:13:40.158Z,14.6
2023-02-12T12:19:15.326Z,14.8
2023-02-12T12:24:50.610Z,14.7
2023-02-12T12:30:26.154Z,15.1
2023-02-12T12:36:01.534Z,15.3
2023-02-12T12:41:36.946Z,15.6
2023-02-12T12:47:12.468Z,16.3
2023-02-12T12:52:47.530Z,16.3
2023-02-12T12:58:39.653Z,16.8
2023-02-12T13:04:14.691Z,16.9
2023-02-12T13:09:58.848Z,17
2023-02-12T13:15:54.648Z,17
2023-02-12T13:21:33.220Z,17.7
2023-02-12T13:27:18.347Z,17.7
2023-02-12T13:32:54.833Z,17.8
2023-02-12T13:38:33.048Z,18.4
2023-02-12T13:44:13.911Z,18.5
2023-02-12T13:49:56.202Z,19.2
2023-02-12T13:55:31.390Z,20
2023-02-12T14:01:06.516Z,20.8
2023-02-12T14:06:43.222Z,21.8
2023-02-12T14:12:24.590Z,23.2
2023-02-12T14:18:21.190Z,24.7
2023-02-12T14:23:57.105Z,25.4
2023-02-12T14:30:06.119Z,25.8
2023-02-12T14:36:44.233Z,26.1
2023-02-12T14:42:19.585Z,28.1
2023-02-12T14:48:19.770Z,28.4
2023-02-12T14:53:52.982Z,29.1
2023-02-12T14:59:28.970Z,29
2023-02-12T15:05:07.468Z,29.1
2023-02-12T15:10:52.078Z,29.1
2023-02-12T15:16:33.486Z,28.6
2023-02-12T15:23:42.531Z,27.4
2023-02-12T15:29:18.003Z,23.6
2023-02-12T15:35:03.328Z,21.3
2023-02-12T15:40:38.552Z,20
2023-02-12T15:46:26.863Z,18.8
2023-02-12T15:52:02.587Z,18
2023-02-12T15:57:40.969Z,17.4
2023-02-12T16:03:24.911Z,17
2023-02-12T16:09:05.942Z,16.4
2023-02-12T16:14:44.769Z,16.1
2023-02-12T16:20:19.494Z,15.8
2023-02-12T16:25:57.799Z,15.3
2023-02-12T16:31:34.354Z,15.1
2023-02-12T16:37:10.538Z,14.9
2023-02-12T16:42:48.493Z,14.6
2023-02-12T16:49:30.819Z,14.4
2023-02-12T16:55:03.336Z,14.2
2023-02-12T17:00:39.070Z,13.9
2023-02-12T17:06:28.995Z,13.7
2023-02-12T17:12:06.636Z,13.5
2023-02-12T17:18:14.093Z,13.2
2023-02-12T17:23:53.306Z,12.9
2023-02-12T17:29:28.029Z,12.7
2023-02-12T17:35:02.988Z,12.6
2023-02-12T17:40:44.015Z,12.4
2023-02-12T17:46:53.744Z,12.1
2023-02-12T17:52:26.784Z,12.1
2023-02-12T17:58:04.630Z,11.8
2023-02-12T18:03:39.585Z,11.8
2023-02-12T18:09:19.990Z,11.5
2023-02-12T18:15:01.078Z,11.5
2023-02-12T18:20:36.918Z,11.3
2023-02-12T18:26:35.536Z,11.4
2023-02-12T18:32:11.598Z,11.2
2023-02-12T18:37:46.653Z,10.9
2023-02-12T18:43:22.572Z,10.6
2023-02-12T18:49:02.077Z,10.4
2023-02-12T18:54:36.853Z,10.2
2023-02-12T19:00:11.780Z,10
2023-02-12T19:05:47.131Z,9.7
2023-02-12T19:11:24.423Z,9.6
2023-02-12T19:17:00.050Z,9.2
2023-02-12T19:22:34.969Z,9.2
2023-02-12T19:28:20.582Z,9.2
2023-02-12T19:33:56.759Z,9
2023-02-12T19:39:32.929Z,8.7
2023-02-12T19:45:08.262Z,8.8
2023-02-12T19:50:46.846Z,8.6
2023-02-12T19:56:22.058Z,8.4
2023-02-12T20:01:58.063Z,9.4
2023-02-12T20:07:34.841Z,9.9
2023-02-12T20:13:15.701Z,10.1
2023-02-12T20:18:58.798Z,10.2
2023-02-12T20:24:43.817Z,10.3
2023-02-12T20:30:29.401Z,10.3
2023-02-12T20:36:15.316Z,10.2
2023-02-12T20:42:00.633Z,10.2
2023-02-12T20:47:41.302Z,10.2
2023-02-12T20:53:26.590Z,10.3
2023-02-12T20:59:10.365Z,10.2
2023-02-12T21:04:51.358Z,10.1
2023-02-12T21:10:37.565Z,10.1
2023-02-12T21:16:22.321Z,10
2023-02-12T21:22:09.698Z,10
2023-02-12T21:27:54.381Z,10
2023-02-12T21:33:40.628Z,10
2023-02-12T21:39:18.522Z,9.9
2023-02-12T21:44:55.917Z,9.9
2023-02-12T21:50:40.130Z,9.9
2023-02-12T21:56:15.078Z,9.8
2023-02-12T22:02:01.732Z,9.7
2023-02-12T22:07:41.656Z,9.7
2023-02-12T22:13:17.442Z,9.6
2023-02-12T22:19:27.008Z,9.5
2023-02-12T22:25:01.834Z,9.5
2023-02-12T22:31:22.730Z,9.4
2023-02-12T22:36:59.806Z,9.4
2023-02-12T22:42:36.078Z,9.3
2023-02-12T22:48:13.531Z,9.3
2023-02-12T22:54:17.335Z,9.3
2023-02-12T22:59:53.861Z,9.2
2023-02-12T23:05:49.829Z,9.2
2023-02-12T23:11:25.906Z,9.2
2023-02-12T23:17:02.327Z,9.2
2023-02-12T23:22:37.511Z,9.1
2023-02-12T23:28:12.680Z,9
2023-02-12T23:33:49.050Z,9
2023-02-12T23:39:45.393Z,9
2023-02-12T23:45:40.525Z,9
2023-02-12T23:52:00.195Z,9
2023-02-12T23:57:43.133Z,8.9
